Time;durP1;ratioP1;P1;durP2;ratioP2;P2;SDS_P1;SDS_P2;PMS_P1;PMS_P2;Temp;Humidity;BMP_temperature;BMP_pressure;BME280_temperature;BME280_humidity;BME280_pressure;Samples;Min_cycle;Max_cycle;Signal;HPM_P1;HPM_P2
2023/08/25 00:03:23;;;;;;;23.42;13.60;;;;;;;21.33;73.85;99824.88;10231361;28;20044;-76
2023/08/25 00:08:25;;;;;;;21.42;13.80;;;;;;;21.37;73.96;99822.44;10248559;28;20350;-76
2023/08/25 00:13:26;;;;;;;20.35;12.15;;;;;;;21.43;73.56;99837.84;10244245;28;20051;-76
2023/08/25 00:18:28;;;;;;;20.80;12.80;;;;;;;21.45;73.33;99823.91;10246961;28;20122;-76
2023/08/25 00:23:30;;;;;;;22.25;14.13;;;;;;;21.43;73.45;99834.25;10246925;28;20308;-74
2023/08/25 00:28:31;;;;;;;22.67;13.55;;;;;;;21.41;73.47;99828.22;10227809;28;20048;-77
2023/08/25 00:33:32;;;;;;;21.23;13.70;;;;;;;21.38;73.23;99818.63;10244979;28;20122;-77
2023/08/25 00:38:34;;;;;;;25.90;15.35;;;;;;;21.36;73.47;99821.59;10243997;28;20272;-76
2023/08/25 00:43:35;;;;;;;21.58;13.95;;;;;;;21.33;73.51;99813.13;10242660;28;20063;-78
2023/08/25 00:48:38;;;;;;;21.70;14.98;;;;;;;21.36;73.48;99804.38;10242036;28;20082;-76
2023/08/25 00:53:40;;;;;;;19.92;12.48;;;;;;;21.30;73.81;99786.28;10250408;28;20119;-75
2023/08/25 00:58:42;;;;;;;20.48;12.15;;;;;;;21.28;73.48;99786.53;10248337;28;20047;-76
2023/08/25 01:03:44;;;;;;;22.98;13.43;;;;;;;21.25;73.60;99798.00;10243232;28;20244;-76
2023/08/25 01:08:46;;;;;;;21.77;14.52;;;;;;;21.29;74.12;99792.84;10241477;28;20051;-76
2023/08/25 01:14:00;;;;;;;24.67;14.57;;;;;;;21.34;73.76;99804.63;10239978;28;20111;-75
2023/08/25 01:19:04;;;;;;;20.45;13.65;;;;;;;21.33;73.96;99799.44;10241421;28;20244;-75
2023/08/25 01:24:15;;;;;;;21.42;13.63;;;;;;;21.36;73.54;99788.78;10225327;28;20065;-77
2023/08/25 01:29:17;;;;;;;20.80;13.40;;;;;;;21.36;73.81;99801.66;10242075;28;20301;-75
2023/08/25 01:34:18;;;;;;;19.38;11.93;;;;;;;21.35;73.23;99800.00;10240650;28;20051;-75
2023/08/25 01:39:21;;;;;;;21.75;13.43;;;;;;;21.31;73.58;99802.44;10244154;28;20059;-75
2023/08/25 01:44:27;;;;;;;19.63;13.20;;;;;;;21.32;73.66;99786.84;10242159;28;20211;-76
2023/08/25 01:49:30;;;;;;;26.30;16.55;;;;;;;21.32;73.77;99776.72;10249345;28;20063;-76
2023/08/25 01:54:31;;;;;;;30.05;19.00;;;;;;;21.35;73.89;99756.25;10216320;28;20047;-76
2023/08/25 01:59:33;;;;;;;36.78;20.67;;;;;;;21.43;73.99;99761.28;10244899;28;20067;-76
2023/08/25 02:04:35;;;;;;;35.85;20.50;;;;;;;21.39;74.22;99760.94;10245881;28;20055;-75
2023/08/25 02:09:36;;;;;;;39.22;22.35;;;;;;;21.36;74.12;99769.66;10244631;28;20526;-73
2023/08/25 02:14:37;;;;;;;38.47;21.67;;;;;;;21.33;74.27;99793.97;10242665;28;20044;-76
2023/08/25 02:19:39;;;;;;;29.95;16.30;;;;;;;20.90;75.68;99788.41;10241399;28;20046;-76
2023/08/25 02:24:41;;;;;;;23.98;15.75;;;;;;;20.69;76.08;99789.25;10236273;28;20055;-76
2023/08/25 02:29:43;;;;;;;24.85;16.13;;;;;;;20.69;75.51;99781.06;10230983;28;20047;-75
2023/08/25 02:34:44;;;;;;;25.35;14.77;;;;;;;20.87;75.23;99777.16;10257338;28;20071;-76
2023/08/25 02:39:45;;;;;;;24.83;15.98;;;;;;;20.97;75.01;99764.44;10241055;28;20074;-77
2023/08/25 02:44:47;;;;;;;24.17;15.13;;;;;;;21.09;74.57;99755.22;10226829;28;20103;-76
2023/08/25 02:49:48;;;;;;;28.25;14.95;;;;;;;21.13;74.09;99740.78;10244494;28;20122;-75
2023/08/25 02:54:50;;;;;;;21.02;14.50;;;;;;;21.17;74.62;99725.50;10245441;28;20122;-75
2023/08/25 02:59:51;;;;;;;21.83;14.93;;;;;;;21.17;74.76;99739.19;10247244;28;20123;-74
2023/08/25 03:04:53;;;;;;;23.92;13.63;;;;;;;21.29;74.58;99733.53;10249375;28;20046;-76
2023/08/25 03:09:54;;;;;;;22.50;14.10;;;;;;;21.44;74.07;99732.81;10258683;28;20043;-76
2023/08/25 03:14:56;;;;;;;26.00;15.63;;;;;;;21.51;74.06;99735.34;10250465;28;20053;-75
2023/08/25 03:19:58;;;;;;;23.67;15.07;;;;;;;21.43;74.13;99712.06;10264332;28;20087;-77
2023/08/25 03:24:59;;;;;;;24.17;15.70;;;;;;;21.47;74.23;99702.22;10252030;28;20047;-76
2023/08/25 03:30:00;;;;;;;25.83;16.00;;;;;;;21.57;73.96;99699.56;10249061;28;20063;-75
2023/08/25 03:35:02;;;;;;;34.58;17.20;;;;;;;21.61;74.23;99704.50;10259646;28;20229;-77
2023/08/25 03:40:04;;;;;;;34.45;19.20;;;;;;;21.70;74.01;99691.94;10249733;28;20127;-76
2023/08/25 03:45:08;;;;;;;28.00;17.10;;;;;;;21.78;73.89;99678.59;10246832;28;20102;-76
2023/08/25 03:50:10;;;;;;;39.72;22.42;;;;;;;21.79;74.02;99688.44;10245853;28;20063;-76
2023/08/25 03:55:11;;;;;;;35.83;19.35;;;;;;;21.84;74.14;99678.59;10250356;28;20051;-76
2023/08/25 04:00:13;;;;;;;28.05;16.17;;;;;;;21.91;73.95;99657.31;10254879;28;20351;-76
2023/08/25 04:05:15;;;;;;;32.53;16.27;;;;;;;21.95;73.81;99656.50;10250866;28;20054;-76
2023/08/25 04:10:16;;;;;;;31.08;17.98;;;;;;;21.99;74.01;99641.16;10244304;28;20112;-76
2023/08/25 04:15:20;;;;;;;31.05;17.30;;;;;;;22.04;73.64;99636.81;10251500;28;20051;-75
2023/08/25 04:20:22;;;;;;;36.85;19.35;;;;;;;22.06;73.63;99643.69;10257752;28;20059;-76
2023/08/25 04:25:25;;;;;;;36.35;19.02;;;;;;;22.10;73.59;99643.97;10259182;28;20122;-76
2023/08/25 04:30:27;;;;;;;33.25;19.10;;;;;;;22.11;73.71;99642.84;10257226;28;20059;-75
2023/08/25 04:35:28;;;;;;;34.67;19.75;;;;;;;22.11;73.66;99651.06;10255009;28;20431;-73
2023/08/25 04:40:29;;;;;;;30.77;18.30;;;;;;;21.99;73.77;99660.31;10249499;28;20064;-72
2023/08/25 04:45:31;;;;;;;34.60;21.35;;;;;;;22.01;74.09;99679.22;10260835;28;20071;-73
2023/08/25 04:50:32;;;;;;;36.25;20.90;;;;;;;21.73;75.11;99694.97;10253119;28;20043;-72
2023/08/25 04:55:34;;;;;;;42.08;21.92;;;;;;;21.73;75.23;99662.16;10270368;28;20054;-71
2023/08/25 05:00:36;;;;;;;48.63;23.15;;;;;;;21.46;76.01;99716.16;10260888;28;20052;-74
2023/08/25 05:05:38;;;;;;;50.97;24.73;;;;;;;21.32;76.68;99707.56;10263952;28;20058;-73
2023/08/25 05:10:40;;;;;;;54.40;25.48;;;;;;;21.54;76.13;99691.03;10234685;28;20043;-75
2023/08/25 05:15:41;;;;;;;55.97;25.05;;;;;;;21.61;76.03;99653.34;10242767;28;20071;-72
2023/08/25 05:20:43;;;;;;;61.70;24.42;;;;;;;21.77;75.94;99666.00;10261913;28;20054;-73
2023/08/25 05:25:44;;;;;;;57.70;25.65;;;;;;;21.92;75.80;99659.78;10256842;28;20070;-72
2023/08/25 05:30:47;;;;;;;54.40;25.88;;;;;;;21.97;75.65;99667.19;10251469;28;20047;-72
2023/08/25 05:35:48;;;;;;;55.05;25.33;;;;;;;21.93;75.65;99661.41;10239403;28;20048;-71
2023/08/25 05:40:49;;;;;;;58.78;25.88;;;;;;;22.00;75.68;99674.88;10251673;28;20250;-71
2023/08/25 05:45:51;;;;;;;68.50;30.38;;;;;;;21.96;76.00;99712.06;10259336;28;20051;-73
2023/08/25 05:50:54;;;;;;;75.88;27.75;;;;;;;21.82;76.95;99730.88;10257683;28;20067;-70
2023/08/25 05:55:57;;;;;;;84.20;29.52;;;;;;;21.86;76.82;99714.72;10245898;28;20106;-72
2023/08/25 06:00:58;;;;;;;83.65;29.38;;;;;;;21.33;78.52;99747.50;10246128;28;20175;-67
2023/08/25 06:06:00;;;;;;;81.75;28.67;;;;;;;21.24;79.46;99747.16;10241484;28;20070;-70
2023/08/25 06:11:01;;;;;;;76.28;25.33;;;;;;;21.27;79.57;99754.00;10242986;28;20071;-70
2023/08/25 06:16:03;;;;;;;82.55;26.05;;;;;;;21.30;79.30;99757.03;10243178;28;20058;-70
2023/08/25 06:21:05;;;;;;;78.60;26.80;;;;;;;21.27;79.72;99743.06;10246277;28;20071;-70
2023/08/25 06:26:06;;;;;;;67.15;23.80;;;;;;;21.19;79.93;99750.66;10225998;28;20071;-71
2023/08/25 06:31:08;;;;;;;60.03;23.92;;;;;;;21.31;79.55;99730.53;10233819;28;20453;-70
2023/08/25 06:36:10;;;;;;;60.67;24.00;;;;;;;21.24;79.47;99741.69;10233576;28;20417;-71
2023/08/25 06:41:11;;;;;;;58.35;23.55;;;;;;;21.24;79.78;99738.13;10246691;28;20039;-71
2023/08/25 06:46:13;;;;;;;62.78;23.75;;;;;;;21.32;79.59;99716.59;10244026;28;20090;-72
2023/08/25 06:51:14;;;;;;;50.78;24.30;;;;;;;21.65;79.29;99724.78;10243268;28;20043;-70
2023/08/25 06:56:16;;;;;;;51.33;22.55;;;;;;;21.68;79.03;99721.47;10244852;28;20077;-72
2023/08/25 07:01:18;;;;;;;42.35;20.17;;;;;;;21.80;79.08;99705.69;10248826;28;20051;-71
2023/08/25 07:06:19;;;;;;;43.45;22.67;;;;;;;21.89;78.86;99692.31;10251071;28;20256;-70
2023/08/25 07:11:21;;;;;;;44.03;24.60;;;;;;;22.07;78.84;99669.13;10249198;28;20118;-71
2023/08/25 07:16:24;;;;;;;46.22;23.38;;;;;;;22.24;78.73;99682.59;10246103;28;20374;-72
2023/08/25 07:21:25;;;;;;;41.80;22.63;;;;;;;22.15;79.00;99718.69;10248950;28;20048;-71
2023/08/25 07:26:27;;;;;;;35.83;20.88;;;;;;;22.10;79.16;99721.44;10244570;28;20252;-72
2023/08/25 07:31:29;;;;;;;36.75;20.67;;;;;;;22.22;78.71;99702.03;10243576;28;20032;-71
2023/08/25 07:36:30;;;;;;;32.50;19.42;;;;;;;22.31;78.47;99692.22;10247117;29;20142;-70
2023/08/25 07:41:32;;;;;;;33.08;19.40;;;;;;;22.35;78.50;99730.84;10247492;29;20071;-71
2023/08/25 07:46:37;;;;;;;30.10;17.17;;;;;;;22.25;79.11;99733.53;10244904;28;20094;-71
2023/08/25 07:51:39;;;;;;;32.23;19.47;;;;;;;22.35;78.66;99722.63;10254286;28;20095;-70
2023/08/25 07:56:41;;;;;;;30.83;19.10;;;;;;;;;;10242936;29;20118;-71
2023/08/25 08:01:43;;;;;;;30.55;19.65;;;;;;;22.56;78.59;99720.75;10246056;28;20050;-72
2023/08/25 08:06:44;;;;;;;30.48;17.98;;;;;;;22.52;78.17;99716.91;10245058;28;20074;-70
2023/08/25 08:11:46;;;;;;;30.38;18.70;;;;;;;22.59;78.08;99722.97;10243686;28;20044;-70
2023/08/25 08:16:47;;;;;;;29.30;16.95;;;;;;;22.81;78.04;99717.25;10248274;28;20372;-71
2023/08/25 08:21:49;;;;;;;23.85;14.60;;;;;;;23.03;77.64;99713.44;10243166;29;20043;-70
2023/08/25 08:26:51;;;;;;;23.50;15.00;;;;;;;23.22;77.33;99724.66;10243152;28;20047;-71
2023/08/25 08:31:55;;;;;;;18.35;11.43;;;;;;;23.41;76.69;99709.28;10246296;28;20289;-72
2023/08/25 08:36:56;;;;;;;14.85;8.93;;;;;;;23.74;75.90;99737.22;10222952;29;20078;-73
2023/08/25 08:41:57;;;;;;;12.10;7.47;;;;;;;23.88;75.70;99734.75;10246542;28;20119;-72
2023/08/25 08:47:01;;;;;;;9.18;6.43;;;;;;;23.97;74.74;99738.53;10247420;28;20231;-71
2023/08/25 08:52:05;;;;;;;8.65;5.45;;;;;;;24.09;73.99;99740.97;10242148;29;20363;-73
2023/08/25 08:57:08;;;;;;;8.68;4.10;;;;;;;24.26;73.48;99729.63;10242382;29;20118;-74
2023/08/25 09:02:13;;;;;;;6.43;2.58;;;;;;;24.57;71.85;99727.56;10243572;28;20059;-72
2023/08/25 09:07:15;;;;;;;4.85;2.53;;;;;;;24.76;71.57;99749.69;10249005;28;20363;-72
2023/08/25 09:12:18;;;;;;;4.07;2.70;;;;;;;24.86;71.04;99749.66;10247931;28;20114;-72
2023/08/25 09:17:20;;;;;;;4.22;2.13;;;;;;;24.85;70.50;99766.44;10256036;28;20255;-72
2023/08/25 09:22:22;;;;;;;5.15;2.30;;;;;;;24.83;69.48;99757.66;10239878;28;20066;-69
2023/08/25 09:27:26;;;;;;;4.32;1.67;;;;;;;24.84;69.59;99756.53;10229434;28;20146;-70
2023/08/25 09:32:28;;;;;;;8.25;1.50;;;;;;;24.87;69.29;99750.47;10245245;28;20047;-71
2023/08/25 09:37:40;;;;;;;4.30;1.83;;;;;;;24.90;68.79;99747.97;10237112;28;20043;-73
2023/08/25 09:42:42;;;;;;;4.57;1.40;;;;;;;25.01;68.54;99743.19;10253672;28;20035;-72
2023/08/25 09:47:43;;;;;;;3.10;1.88;;;;;;;25.19;67.74;99738.13;10239961;28;20043;-73
2023/08/25 09:52:47;;;;;;;8.52;1.77;;;;;;;25.27;67.62;99732.81;10239980;28;20039;-73
2023/08/25 09:57:50;;;;;;;3.80;1.50;;;;;;;25.51;67.27;99686.09;10240563;28;20051;-72
2023/08/25 10:02:53;;;;;;;3.33;1.42;;;;;;;25.82;66.60;99685.75;10248268;28;20036;-72
2023/08/25 10:07:54;;;;;;;3.10;1.35;;;;;;;25.95;66.22;99673.22;10233584;28;20044;-73
2023/08/25 10:12:57;;;;;;;3.10;1.70;;;;;;;26.25;65.20;99662.91;10252704;28;20047;-69
2023/08/25 10:18:06;;;;;;;4.68;1.25;;;;;;;26.60;64.78;99631.25;10250460;28;20115;-70
2023/08/25 10:23:09;;;;;;;2.00;1.25;;;;;;;26.85;63.95;99640.22;10247648;29;20598;-69
2023/08/25 10:28:11;;;;;;;4.63;1.08;;;;;;;27.10;63.39;99630.69;10248702;29;20269;-69
2023/08/25 10:33:12;;;;;;;2.17;0.90;;;;;;;27.13;62.15;99643.84;10244233;28;20059;-69
2023/08/25 10:38:20;;;;;;;4.28;1.95;;;;;;;27.05;62.41;99630.75;10221158;29;20047;-72
2023/08/25 10:43:32;;;;;;;2.22;0.80;;;;;;;26.96;62.07;99638.94;10243209;28;20050;-70
2023/08/25 10:48:37;;;;;;;2.97;1.00;;;;;;;26.82;61.63;99636.13;10252463;29;20074;-69
2023/08/25 10:53:44;;;;;;;5.88;2.22;;;;;;;27.12;60.99;99622.91;10233767;28;20157;-71
2023/08/25 10:59:09;;;;;;;1.70;0.70;;;;;;;27.33;60.10;99606.81;10244354;28;20043;-72
2023/08/25 11:04:13;;;;;;;1.95;0.88;;;;;;;27.94;58.55;99599.19;10264817;28;20043;-69
2023/08/25 11:09:17;;;;;;;2.42;0.90;;;;;;;28.19;57.90;99614.41;10256318;28;20056;-69
2023/08/25 11:14:18;;;;;;;1.63;0.93;;;;;;;28.70;56.86;99604.09;10248643;28;21118;-70
2023/08/25 11:19:20;;;;;;;2.92;0.90;;;;;;;28.84;56.59;99620.59;10248109;28;20082;-71
2023/08/25 11:24:25;;;;;;;2.25;0.75;;;;;;;29.13;55.53;99608.25;10245772;28;20115;-69
2023/08/25 11:29:26;;;;;;;3.75;0.70;;;;;;;29.37;55.21;99614.22;10253486;28;20107;-69
2023/08/25 11:34:32;;;;;;;2.03;0.80;;;;;;;29.62;54.16;99617.38;10248297;28;20300;-71
2023/08/25 11:39:41;;;;;;;1.00;0.60;;;;;;;29.77;52.99;99616.97;10244960;28;20055;-70
2023/08/25 11:44:43;;;;;;;3.33;1.13;;;;;;;29.73;52.84;99623.50;10245707;28;20062;-73
2023/08/25 11:49:44;;;;;;;1.88;0.60;;;;;;;29.81;52.29;99611.59;10251260;28;20235;-70
2023/08/25 11:54:48;;;;;;;2.55;0.98;;;;;;;30.26;51.72;99614.09;10246113;28;20066;-72
2023/08/25 11:59:50;;;;;;;3.75;0.60;;;;;;;30.16;50.99;99618.00;10244834;28;20264;-70
2023/08/25 12:04:54;;;;;;;3.53;1.20;;;;;;;30.14;50.96;99605.63;10245864;28;20051;-72
2023/08/25 12:10:03;;;;;;;4.65;0.93;;;;;;;30.24;50.33;99621.94;10273554;28;20046;-73
2023/08/25 12:15:07;;;;;;;1.17;0.70;;;;;;;29.76;50.98;99622.84;10282022;28;20067;-72
2023/08/25 12:20:14;;;;;;;2.75;1.23;;;;;;;29.44;51.32;99614.59;10256149;28;20063;-71
2023/08/25 12:25:16;;;;;;;1.98;1.08;;;;;;;29.37;51.18;99639.16;10242053;28;20583;-70
2023/08/25 12:30:17;;;;;;;2.83;0.90;;;;;;;28.85;51.57;99638.81;10244891;28;20078;-71
2023/08/25 12:35:19;;;;;;;3.15;0.90;;;;;;;28.75;51.45;99639.09;10238672;28;20074;-71
2023/08/25 12:40:21;;;;;;;2.30;0.93;;;;;;;28.55;51.87;99646.75;10239660;28;20062;-73
2023/08/25 12:45:23;;;;;;;2.05;0.70;;;;;;;28.55;52.10;99638.44;10243631;28;20074;-72
2023/08/25 12:50:27;;;;;;;4.85;1.25;;;;;;;28.47;52.66;99640.00;10218310;28;20193;-72
2023/08/25 12:55:29;;;;;;;1.88;0.75;;;;;;;28.31;53.02;99635.97;10244596;28;20054;-71
2023/08/25 13:00:30;;;;;;;1.67;0.68;;;;;;;28.31;53.33;99626.84;10247300;28;20047;-72
2023/08/25 13:05:32;;;;;;;1.55;0.70;;;;;;;28.27;53.43;99613.66;10244543;28;20055;-72
2023/08/25 13:10:33;;;;;;;2.00;1.05;;;;;;;28.31;53.50;99602.78;10245470;28;20537;-72
2023/08/25 13:15:36;;;;;;;2.70;0.70;;;;;;;28.68;52.84;99590.56;10253773;28;20054;-74
2023/08/25 13:20:37;;;;;;;5.65;1.05;;;;;;;29.14;52.71;99609.88;10234354;28;20066;-71
2023/08/25 13:25:39;;;;;;;4.32;1.00;;;;;;;28.82;52.86;99611.81;10231880;28;20237;-71
2023/08/25 13:30:40;;;;;;;4.10;1.52;;;;;;;28.79;52.70;99602.19;10238201;28;20085;-72
2023/08/25 13:35:42;;;;;;;2.92;1.00;;;;;;;28.70;52.61;99601.31;10239205;28;20107;-71
2023/08/25 13:40:43;;;;;;;3.08;1.13;;;;;;;28.72;52.54;99599.06;10238087;28;20050;-71
2023/08/25 13:45:45;;;;;;;4.10;1.10;;;;;;;29.17;51.41;99590.69;10237771;28;20056;-72
2023/08/25 13:50:49;;;;;;;4.63;1.25;;;;;;;29.61;50.78;99583.34;10239149;28;20055;-72
2023/08/25 13:55:50;;;;;;;2.28;1.13;;;;;;;30.22;49.68;99557.66;10242323;28;20122;-70
2023/08/25 14:00:52;;;;;;;1.98;1.23;;;;;;;30.14;49.19;99583.44;10241319;28;20051;-72
2023/08/25 14:05:55;;;;;;;3.60;1.10;;;;;;;30.25;48.91;99568.94;10237039;28;20059;-73
2023/08/25 14:11:01;;;;;;;2.88;1.30;;;;;;;30.12;49.15;99581.00;10233415;28;20050;-71
2023/08/25 14:16:03;;;;;;;3.42;1.35;;;;;;;30.61;48.05;99589.16;10244839;28;20061;-73
2023/08/25 14:21:05;;;;;;;2.58;1.20;;;;;;;31.87;45.82;99586.84;10250681;28;20067;-72
2023/08/25 14:26:07;;;;;;;4.03;1.20;;;;;;;32.55;43.88;99585.81;10243035;28;20047;-72
2023/08/25 14:31:08;;;;;;;2.45;1.10;;;;;;;32.40;44.83;99588.06;10241779;28;20058;-73
2023/08/25 14:36:10;;;;;;;2.65;1.58;;;;;;;32.06;44.89;99586.41;10231116;28;20161;-73
2023/08/25 14:41:11;;;;;;;2.92;1.95;;;;;;;31.55;45.92;99591.13;10236040;28;20115;-73
2023/08/25 14:46:13;;;;;;;2.17;1.08;;;;;;;31.54;45.68;99589.53;10282111;28;20054;-72
2023/08/25 14:51:15;;;;;;;3.72;1.25;;;;;;;31.94;44.95;99575.19;10274016;28;20051;-72
2023/08/25 14:56:18;;;;;;;4.38;1.33;;;;;;;31.56;45.50;99571.34;10243345;28;20389;-71
2023/08/25 15:01:19;;;;;;;2.47;0.95;;;;;;;31.60;45.56;99579.84;10259203;28;20070;-73
2023/08/25 15:06:21;;;;;;;1.98;1.75;;;;;;;31.59;45.36;99578.19;10248707;28;20126;-74
2023/08/25 15:11:22;;;;;;;4.03;1.52;;;;;;;31.93;44.79;99593.00;10252631;28;20043;-72
2023/08/25 15:16:24;;;;;;;3.00;1.40;;;;;;;32.35;43.86;99582.75;10251552;28;20050;-71
2023/08/25 15:21:25;;;;;;;2.20;1.30;;;;;;;32.78;43.41;99577.91;10252093;28;20126;-74
2023/08/25 15:26:27;;;;;;;3.95;1.52;;;;;;;32.42;43.78;99580.19;10252678;28;20350;-72
2023/08/25 15:31:28;;;;;;;4.22;1.70;;;;;;;32.76;42.95;99564.34;10254457;28;20078;-72
2023/08/25 15:36:30;;;;;;;3.25;1.33;;;;;;;32.79;43.18;99568.41;10255612;28;20056;-72
2023/08/25 15:41:34;;;;;;;5.82;1.65;;;;;;;32.84;43.06;99562.63;10249045;28;20070;-71
2023/08/25 15:46:38;;;;;;;2.78;1.20;;;;;;;32.52;43.59;99564.25;10231133;28;20094;-73
2023/08/25 15:51:40;;;;;;;3.00;1.67;;;;;;;32.11;43.93;99563.97;10247536;28;20146;-72
2023/08/25 15:56:41;;;;;;;3.33;1.90;;;;;;;31.96;44.17;99557.00;10248633;28;20063;-72
2023/08/25 16:01:42;;;;;;;5.10;1.95;;;;;;;31.55;45.06;99550.28;10246121;28;20066;-74
2023/08/25 16:06:44;;;;;;;5.50;2.47;;;;;;;31.15;45.58;99549.81;10232393;28;20504;-72
2023/08/25 16:11:45;;;;;;;3.85;1.75;;;;;;;30.95;45.91;99537.50;10250752;28;20107;-73
2023/08/25 16:16:47;;;;;;;4.60;2.05;;;;;;;31.25;45.27;99515.31;10245775;28;20051;-74
2023/08/25 16:21:49;;;;;;;2.85;1.63;;;;;;;31.48;45.15;99541.66;10244144;28;20106;-73
2023/08/25 16:26:50;;;;;;;8.13;1.75;;;;;;;31.59;45.16;99528.19;10242860;28;20059;-73
2023/08/25 16:31:52;;;;;;;6.63;2.50;;;;;;;31.89;44.58;99509.47;10242299;28;20047;-73
2023/08/25 16:36:54;;;;;;;4.43;1.70;;;;;;;32.16;44.19;99504.53;10245228;28;20059;-73
2023/08/25 16:41:56;;;;;;;6.80;1.85;;;;;;;32.22;44.24;99506.75;10234307;28;20119;-72
2023/08/25 16:46:59;;;;;;;5.30;1.80;;;;;;;32.47;43.98;99495.72;10248996;28;20059;-75
2023/08/25 16:52:00;;;;;;;6.85;1.60;;;;;;;32.58;43.75;99496.94;10292156;28;20055;-71
2023/08/25 16:57:02;;;;;;;5.85;2.25;;;;;;;32.44;43.52;99495.59;10289781;28;20058;-72
2023/08/25 17:02:03;;;;;;;4.55;1.45;;;;;;;32.56;43.25;99517.91;10268068;28;20078;-76
2023/08/25 17:07:05;;;;;;;7.57;1.63;;;;;;;32.18;43.72;99543.94;10256093;28;20063;-70
2023/08/25 17:12:07;;;;;;;6.05;2.95;;;;;;;31.76;44.50;99532.81;10250000;28;20756;-72
2023/08/25 17:17:09;;;;;;;5.85;1.92;;;;;;;31.33;45.18;99548.56;10253028;28;20051;-72
2023/08/25 17:22:10;;;;;;;4.82;1.83;;;;;;;30.94;45.98;99555.28;10253257;28;20077;-68
2023/08/25 17:27:11;;;;;;;12.38;3.20;;;;;;;30.31;47.00;99564.03;10248294;28;20077;-73
2023/08/25 17:32:13;;;;;;;8.73;2.20;;;;;;;29.96;47.65;99549.38;10239366;28;20054;-70
2023/08/25 17:37:14;;;;;;;4.10;2.28;;;;;;;29.81;48.43;99534.81;10221637;29;20122;-70
2023/08/25 17:42:16;;;;;;;8.90;2.03;;;;;;;29.55;48.58;99536.72;10244809;29;20058;-72
2023/08/25 17:47:17;;;;;;;4.38;2.00;;;;;;;29.29;49.29;99545.78;10226670;29;20163;-69
2023/08/25 17:52:19;;;;;;;5.93;2.63;;;;;;;29.00;50.24;99544.34;10226206;28;20057;-71
2023/08/25 17:57:20;;;;;;;12.90;6.03;;;;;;;28.88;50.44;99547.69;10246033;28;20126;-69
2023/08/25 18:02:21;;;;;;;2.92;2.35;;;;;;;28.68;51.58;99549.06;10245071;28;20090;-70
2023/08/25 18:07:23;;;;;;;8.07;2.92;;;;;;;28.51;51.94;99545.38;10237404;28;20043;-70
2023/08/25 18:12:25;;;;;;;5.63;2.50;;;;;;;28.29;52.94;99544.22;10250256;28;20083;-68
2023/08/25 18:17:26;;;;;;;6.03;2.50;;;;;;;28.13;53.59;99549.31;10249199;28;20225;-69
2023/08/25 18:22:28;;;;;;;7.35;2.75;;;;;;;27.96;54.47;99557.47;10243407;28;20148;-75
2023/08/25 18:27:29;;;;;;;5.05;2.72;;;;;;;27.84;54.45;99542.22;10249126;28;20059;-69
2023/08/25 18:32:30;;;;;;;5.82;2.80;;;;;;;27.80;54.41;99532.91;10255986;28;20339;-69
2023/08/25 18:37:32;;;;;;;4.53;2.20;;;;;;;27.77;54.86;99518.94;10261383;28;20050;-72
2023/08/25 18:42:33;;;;;;;4.25;2.20;;;;;;;27.61;55.03;99524.78;10250555;28;20040;-74
2023/08/25 18:47:35;;;;;;;5.65;2.53;;;;;;;27.49;55.22;99544.66;10248195;28;20054;-72
2023/08/25 18:52:38;;;;;;;6.20;2.92;;;;;;;27.42;55.33;99546.19;10274621;28;20054;-71
2023/08/25 18:57:40;;;;;;;7.63;2.17;;;;;;;27.30;55.03;99558.56;10276153;28;20062;-73
2023/08/25 19:02:41;;;;;;;4.72;2.90;;;;;;;27.21;55.57;99556.78;10286469;28;20042;-69
2023/08/25 19:07:43;;;;;;;7.07;2.95;;;;;;;27.18;55.14;99552.72;10277102;29;20098;-70
2023/08/25 19:12:45;;;;;;;6.53;2.60;;;;;;;27.11;55.30;99566.06;10290926;28;20111;-72
2023/08/25 19:17:46;;;;;;;6.90;3.58;;;;;;;27.05;55.27;99556.28;10250787;29;20055;-71
2023/08/25 19:22:50;;;;;;;4.05;3.00;;;;;;;27.00;55.29;99593.06;10230954;29;20057;-70
2023/08/25 19:27:52;;;;;;;4.40;2.25;;;;;;;26.81;55.61;99579.31;10251762;28;20079;-75
2023/08/25 19:32:53;;;;;;;3.22;2.20;;;;;;;26.85;55.17;99574.84;10246939;28;20071;-75
2023/08/25 19:37:55;;;;;;;3.83;1.92;;;;;;;26.73;55.57;99595.75;10249035;28;20131;-75
2023/08/25 19:42:57;;;;;;;7.40;2.58;;;;;;;26.64;55.85;99590.94;10235565;28;20057;-77
2023/08/25 19:47:58;;;;;;;5.20;2.25;;;;;;;26.65;55.92;99587.03;10242307;28;20118;-80
2023/08/25 19:53:00;;;;;;;5.38;2.70;;;;;;;26.64;56.01;99599.22;10245976;28;20234;-77
2023/08/25 19:58:03;;;;;;;10.45;3.50;;;;;;;26.62;56.29;99586.81;10245678;28;20152;-74
2023/08/25 20:03:05;;;;;;;4.78;2.65;;;;;;;26.61;56.26;99586.00;10247844;28;20051;-79
2023/08/25 20:08:07;;;;;;;7.82;3.15;;;;;;;26.49;56.69;99591.16;10247320;29;20063;-75
2023/08/25 20:13:09;;;;;;;4.10;2.58;;;;;;;26.44;57.20;99600.34;10252385;28;20067;-76
2023/08/25 20:18:11;;;;;;;3.53;3.03;;;;;;;26.43;57.21;99586.84;10236350;28;20125;-73
2023/08/25 20:23:15;;;;;;;5.38;3.13;;;;;;;26.39;58.06;99585.81;10245516;28;20364;-74
2023/08/25 20:28:16;;;;;;;5.25;3.13;;;;;;;26.31;57.97;99577.09;10249463;28;20373;-73
2023/08/25 20:33:18;;;;;;;5.53;3.55;;;;;;;26.27;58.48;99575.25;10246295;28;20106;-76
2023/08/25 20:38:19;;;;;;;6.30;3.40;;;;;;;26.21;58.75;99593.81;10247554;28;20106;-74
2023/08/25 20:43:21;;;;;;;5.40;3.10;;;;;;;26.06;58.69;99596.78;10243845;29;20137;-73
2023/08/25 20:48:22;;;;;;;7.43;3.10;;;;;;;25.97;58.69;99584.78;10240925;29;20062;-77
2023/08/25 20:53:24;;;;;;;8.57;2.92;;;;;;;25.94;58.94;99583.44;10243696;28;20055;-75
2023/08/25 20:58:25;;;;;;;4.28;3.28;;;;;;;25.93;59.53;99584.56;10247094;29;20055;-75
2023/08/25 21:03:27;;;;;;;10.43;4.13;;;;;;;25.91;59.14;99565.59;10244136;28;20079;-75
2023/08/25 21:08:29;;;;;;;6.20;3.90;;;;;;;25.90;59.66;99563.94;10247979;28;20059;-75
2023/08/25 21:13:31;;;;;;;6.45;3.85;;;;;;;25.90;59.57;99552.91;10261615;28;20039;-75
2023/08/25 21:18:33;;;;;;;5.40;3.90;;;;;;;25.86;60.24;99551.84;10249539;28;20059;-73
2023/08/25 21:23:34;;;;;;;5.85;3.45;;;;;;;25.84;60.35;99545.00;10257497;28;20089;-74
2023/08/25 21:28:36;;;;;;;4.72;3.65;;;;;;;25.81;59.66;99562.97;10262923;28;20047;-73
2023/08/25 21:33:37;;;;;;;6.75;3.70;;;;;;;25.51;61.12;99564.16;10254589;28;20051;-75
2023/08/25 21:38:39;;;;;;;10.18;3.53;;;;;;;25.19;62.50;99578.56;10251798;28;20051;-74
2023/08/25 21:43:40;;;;;;;5.55;3.47;;;;;;;24.80;63.41;99615.25;10246358;28;20114;-74
2023/08/25 21:48:42;;;;;;;6.40;4.20;;;;;;;23.99;66.64;99650.41;10249098;29;20059;-81
2023/08/25 21:53:43;;;;;;;8.85;4.28;;;;;;;23.39;69.08;99642.91;10241548;29;20047;-77
2023/08/25 21:58:45;;;;;;;7.13;5.00;;;;;;;23.52;69.00;99627.81;10250417;29;20051;-79
2023/08/25 22:03:46;;;;;;;8.30;5.13;;;;;;;23.51;69.94;99612.44;10241418;28;20040;-80
2023/08/25 22:08:48;;;;;;;9.05;5.68;;;;;;;23.48;70.77;99600.09;10233244;29;20071;-76
2023/08/25 22:13:50;;;;;;;9.25;5.45;;;;;;;23.55;70.57;99575.91;10242185;28;20048;-75
2023/08/25 22:18:52;;;;;;;9.73;5.68;;;;;;;23.48;70.73;99580.91;10245766;28;20305;-76
2023/08/25 22:23:53;;;;;;;7.38;5.43;;;;;;;23.45;71.12;99591.59;10240908;28;20114;-77
2023/08/25 22:28:55;;;;;;;11.20;5.38;;;;;;;23.46;71.06;99594.06;10233914;28;20089;-75
2023/08/25 22:33:56;;;;;;;10.73;6.53;;;;;;;23.48;71.53;99569.06;10220402;28;20047;-73
2023/08/25 22:39:01;;;;;;;9.43;5.40;;;;;;;23.53;71.21;99580.84;10233776;29;20058;-75
2023/08/25 22:44:03;;;;;;;12.48;6.07;;;;;;;23.47;71.89;99583.91;10252994;28;20363;-76
2023/08/25 22:49:05;;;;;;;10.45;6.00;;;;;;;23.50;71.78;99558.63;10239750;29;20043;-78
2023/08/25 22:54:06;;;;;;;9.13;6.68;;;;;;;23.40;72.46;99547.72;10240914;29;20048;-78
2023/08/25 22:59:08;;;;;;;12.05;6.07;;;;;;;23.40;72.26;99586.97;10252094;28;20296;-79
2023/08/25 23:04:09;;;;;;;12.20;6.00;;;;;;;23.45;72.48;99586.13;10248757;28;20370;-75
2023/08/25 23:09:14;;;;;;;13.18;7.28;;;;;;;23.53;72.25;99569.88;10251315;29;20067;-76
2023/08/25 23:14:15;;;;;;;11.35;7.57;;;;;;;23.53;72.64;99594.56;10240098;28;20347;-76